Time;durP1;ratioP1;P1;durP2;ratioP2;P2;SDS_P1;SDS_P2;PMS_P1;PMS_P2;Temp;Humidity;BMP_temperature;BMP_pressure;BME280_temperature;BME280_humidity;BME280_pressure;Samples;Min_cycle;Max_cycle;Signal;HPM_P1;HPM_P2
2022/09/05 00:01:07;;;;;;;1.83;1.20;;;21.40;99.90;;;;;;4175581;28;20552;-89
2022/09/05 00:03:13;;;;;;;2.85;1.10;;;21.40;99.90;;;;;;4181748;28;20171;-89
2022/09/05 00:05:22;;;;;;;3.03;1.23;;;21.30;99.90;;;;;;4165402;28;20196;-89
2022/09/05 00:07:35;;;;;;;2.30;1.10;;;21.30;99.90;;;;;;4182115;28;20193;-86
2022/09/05 00:09:36;;;;;;;4.72;1.20;;;21.20;99.90;;;;;;4181612;28;20204;-90
2022/09/05 00:11:57;;;;;;;2.15;0.88;;;21.20;99.90;;;;;;4181803;28;20179;-86
2022/09/05 00:14:16;;;;;;;3.53;1.20;;;21.30;99.90;;;;;;4183024;28;20183;-86
2022/09/05 00:16:30;;;;;;;2.97;1.17;;;21.20;99.90;;;;;;4181874;28;20213;-85
2022/09/05 00:18:46;;;;;;;4.25;1.00;;;21.20;99.90;;;;;;4181718;28;20185;-86
2022/09/05 00:21:07;;;;;;;2.50;1.45;;;21.10;99.90;;;;;;4198403;28;20278;-86
2022/09/05 00:23:39;;;;;;;6.70;1.35;;;21.10;99.90;;;;;;4164768;28;20246;-87
2022/09/05 00:26:15;;;;;;;1.98;1.00;;;21.10;99.90;;;;;;4198066;28;20174;-87
2022/09/05 00:28:38;;;;;;;2.75;1.38;;;21.10;99.90;;;;;;4165126;28;20218;-92
2022/09/05 00:31:05;;;;;;;5.88;1.20;;;21.00;99.90;;;;;;4181363;28;20691;-87
2022/09/05 00:33:30;;;;;;;2.90;1.17;;;21.00;99.90;;;;;;4197655;28;20178;-87
2022/09/05 00:35:49;;;;;;;3.50;1.23;;;21.00;99.90;;;;;;4164927;28;20596;-86
2022/09/05 00:37:51;;;;;;;3.65;1.30;;;20.90;99.90;;;;;;4181384;28;20242;-86
2022/09/05 00:39:58;;;;;;;5.10;1.30;;;20.90;99.90;;;;;;4181021;28;20215;-87
2022/09/05 00:42:08;;;;;;;8.18;1.33;;;20.90;99.90;;;;;;4164871;28;20253;-89
2022/09/05 00:44:12;;;;;;;3.25;1.40;;;21.00;99.90;;;;;;4164708;28;20557;-85
2022/09/05 00:46:21;;;;;;;5.13;1.08;;;21.00;99.90;;;;;;4164176;28;20188;-90
2022/09/05 00:48:37;;;;;;;4.32;1.45;;;21.00;99.90;;;;;;4164656;28;20214;-86
2022/09/05 00:51:02;;;;;;;4.25;1.40;;;21.00;99.90;;;;;;4181041;28;20782;-86
2022/09/05 00:53:32;;;;;;;3.75;1.52;;;21.00;99.90;;;;;;4181119;28;20179;-86
2022/09/05 00:56:00;;;;;;;7.13;1.58;;;20.90;99.90;;;;;;4197675;28;20191;-86
2022/09/05 00:58:32;;;;;;;3.70;1.30;;;20.90;99.90;;;;;;4164695;28;20188;-85
2022/09/05 01:00:53;;;;;;;2.05;1.15;;;20.80;99.90;;;;;;4164543;28;20202;-88
2022/09/05 01:03:21;;;;;;;7.05;1.70;;;20.90;99.90;;;;;;4197774;28;20206;-86
2022/09/05 01:05:49;;;;;;;2.28;1.33;;;21.00;99.90;;;;;;4164914;28;20200;-86
2022/09/05 01:08:27;;;;;;;3.38;1.30;;;21.00;99.90;;;;;;4168403;28;20172;-89
2022/09/05 01:10:42;;;;;;;6.88;1.58;;;21.00;99.90;;;;;;4168209;28;20289;-86
2022/09/05 01:13:10;;;;;;;3.13;1.40;;;21.00;99.90;;;;;;4168311;28;20179;-87
2022/09/05 01:15:31;;;;;;;2.63;1.40;;;21.00;99.90;;;;;;4184481;28;20640;-88
2022/09/05 01:17:56;;;;;;;5.25;1.50;;;20.90;99.90;;;;;;4184999;28;20213;-90
2022/09/05 01:20:43;;;;;;;4.78;1.35;;;20.80;99.90;;;;;;4184973;28;20195;-88
2022/09/05 01:23:20;;;;;;;3.22;1.50;;;20.60;99.90;;;;;;4183906;28;20183;-92
2022/09/05 01:25:32;;;;;;;3.92;1.30;;;20.70;99.90;;;;;;4181882;28;20182;-86
2022/09/05 01:28:01;;;;;;;5.47;1.55;;;20.70;99.90;;;;;;4181058;28;20176;-85
2022/09/05 01:30:13;;;;;;;3.60;1.35;;;20.90;99.90;;;;;;4189120;28;20175;-86
2022/09/05 01:32:52;;;;;;;9.15;1.52;;;20.70;99.90;;;;;;4166651;28;20176;-92
2022/09/05 01:35:00;;;;;;;3.45;1.42;;;20.90;99.90;;;;;;4149189;28;20199;-86
2022/09/05 01:37:23;;;;;;;3.72;1.40;;;20.80;99.90;;;;;;4182052;28;20205;-86
2022/09/05 01:39:51;;;;;;;4.97;1.60;;;20.80;99.90;;;;;;4164038;28;20570;-86
2022/09/05 01:42:03;;;;;;;4.78;1.40;;;20.70;99.90;;;;;;4178327;28;20238;-89
2022/09/05 01:44:11;;;;;;;4.78;1.30;;;20.80;99.90;;;;;;4163921;28;20184;-90
2022/09/05 01:46:29;;;;;;;5.55;1.55;;;20.80;99.90;;;;;;4180774;28;20200;-90
2022/09/05 01:48:56;;;;;;;3.15;1.55;;;20.90;99.90;;;;;;4164311;28;20664;-85
2022/09/05 01:51:18;;;;;;;2.65;1.40;;;20.80;99.90;;;;;;4164042;28;20211;-85
2022/09/05 01:53:55;;;;;;;6.28;1.38;;;20.70;99.90;;;;;;4180667;28;20168;-88
2022/09/05 01:55:58;;;;;;;4.28;1.65;;;20.70;99.90;;;;;;4180865;28;20229;-86
2022/09/05 01:58:12;;;;;;;3.33;1.40;;;20.70;99.90;;;;;;4164219;28;20671;-87
2022/09/05 02:00:20;;;;;;;2.80;1.52;;;20.60;99.90;;;;;;4166911;28;20195;-85
2022/09/05 02:02:35;;;;;;;3.67;1.33;;;20.60;99.90;;;;;;4200344;28;20180;-86
2022/09/05 02:05:12;;;;;;;3.78;1.63;;;20.70;99.90;;;;;;4184052;28;20210;-91
2022/09/05 02:07:31;;;;;;;6.45;1.90;;;20.70;99.90;;;;;;4183670;28;20178;-88
2022/09/05 02:10:17;;;;;;;2.90;1.50;;;20.90;99.90;;;;;;4166920;28;20183;-87
2022/09/05 02:12:40;;;;;;;3.10;1.52;;;20.70;99.90;;;;;;4183860;28;20184;-86
2022/09/05 02:14:41;;;;;;;4.95;1.70;;;20.80;99.90;;;;;;4200199;28;20663;-93
2022/09/05 02:16:43;;;;;;;4.80;1.50;;;20.90;99.90;;;;;;4167126;28;20208;-86
2022/09/05 02:18:46;;;;;;;4.28;1.83;;;20.90;99.90;;;;;;4200118;28;20535;-85
2022/09/05 02:20:57;;;;;;;7.97;1.70;;;20.90;99.90;;;;;;4166685;28;20700;-87
2022/09/05 02:23:39;;;;;;;4.05;1.52;;;20.90;99.90;;;;;;4183576;28;20175;-86
2022/09/05 02:25:46;;;;;;;5.18;1.70;;;20.80;99.90;;;;;;4173264;28;20667;-86
2022/09/05 02:27:53;;;;;;;8.10;1.63;;;20.70;99.90;;;;;;4166969;28;20199;-92
2022/09/05 02:30:07;;;;;;;4.07;1.67;;;20.80;99.90;;;;;;4166562;28;20660;-87
2022/09/05 02:32:23;;;;;;;6.60;1.40;;;20.80;99.90;;;;;;4166871;28;20683;-86
2022/09/05 02:34:56;;;;;;;4.18;1.58;;;20.90;99.90;;;;;;4166750;28;20208;-88
2022/09/05 02:37:03;;;;;;;4.57;1.50;;;20.90;99.90;;;;;;4166832;28;20215;-92
2022/09/05 02:39:16;;;;;;;3.42;1.45;;;20.90;99.90;;;;;;4166899;28;20171;-86
2022/09/05 02:41:25;;;;;;;4.00;1.77;;;20.70;99.90;;;;;;4183089;28;20199;-91
2022/09/05 02:43:44;;;;;;;3.65;1.50;;;20.60;99.90;;;;;;4166633;28;20179;-85
2022/09/05 02:46:00;;;;;;;4.57;1.60;;;20.50;99.90;;;;;;4183130;28;20172;-93
2022/09/05 02:48:24;;;;;;;6.55;1.73;;;20.60;99.90;;;;;;4183086;28;20175;-88
2022/09/05 02:50:51;;;;;;;5.72;1.77;;;20.70;99.90;;;;;;4199147;28;20718;-90
2022/09/05 02:52:53;;;;;;;3.17;1.55;;;20.60;99.90;;;;;;4183089;28;20171;-85
2022/09/05 02:54:55;;;;;;;3.00;1.40;;;20.50;99.90;;;;;;4182919;28;20259;-86
2022/09/05 02:57:19;;;;;;;4.35;1.70;;;20.70;99.90;;;;;;4166514;28;20220;-87
2022/09/05 02:59:34;;;;;;;4.88;1.83;;;20.70;99.90;;;;;;4183113;28;20209;-86
2022/09/05 03:01:44;;;;;;;6.00;1.60;;;20.70;99.90;;;;;;4166277;28;20180;-85
2022/09/05 03:03:53;;;;;;;3.25;1.63;;;20.70;99.90;;;;;;4166323;28;20176;-93
2022/09/05 03:06:03;;;;;;;8.23;2.15;;;20.50;99.90;;;;;;4183974;28;20258;-86
2022/09/05 03:08:13;;;;;;;4.97;1.73;;;20.50;99.90;;;;;;4183814;28;20513;-88
2022/09/05 03:10:54;;;;;;;11.20;2.15;;;20.60;99.90;;;;;;4182086;28;20253;-87
2022/09/05 03:12:57;;;;;;;8.18;1.95;;;20.70;99.90;;;;;;4199071;28;20170;-87
2022/09/05 03:15:46;;;;;;;9.25;1.80;;;20.60;99.90;;;;;;4182522;28;20199;-86
2022/09/05 03:18:18;;;;;;;2.90;1.50;;;20.70;99.90;;;;;;4165735;28;20311;-87
2022/09/05 03:21:28;;;;;;;3.95;1.70;;;20.50;99.90;;;;;;4182627;28;20195;-86
2022/09/05 03:23:59;;;;;;;5.38;1.52;;;20.30;99.90;;;;;;4161360;28;20180;-87
2022/09/05 03:26:35;;;;;;;6.50;1.95;;;20.30;99.90;;;;;;4149158;28;20314;-88
2022/09/05 03:29:08;;;;;;;4.80;1.65;;;20.40;99.90;;;;;;4194699;28;20602;-92
2022/09/05 03:31:30;;;;;;;2.92;1.52;;;20.30;99.90;;;;;;4182525;28;20191;-89
2022/09/05 03:33:58;;;;;;;5.13;1.80;;;20.30;99.90;;;;;;4166047;28;20211;-86
2022/09/05 03:36:10;;;;;;;2.97;1.70;;;20.30;99.90;;;;;;4182543;28;20662;-87
2022/09/05 03:38:32;;;;;;;4.53;1.70;;;20.30;99.90;;;;;;4182414;28;20187;-92
2022/09/05 03:41:12;;;;;;;5.55;1.63;;;20.50;99.90;;;;;;4165866;28;20279;-93
2022/09/05 03:43:49;;;;;;;3.75;2.00;;;20.50;99.90;;;;;;4161833;28;20608;-90
2022/09/05 03:46:19;;;;;;;3.08;1.88;;;20.40;99.90;;;;;;4182349;28;20183;-87
2022/09/05 03:48:19;;;;;;;7.30;1.45;;;20.50;99.90;;;;;;4165844;28;20218;-86
2022/09/05 03:50:35;;;;;;;3.90;1.80;;;20.40;99.90;;;;;;4186890;28;20218;-85
2022/09/05 03:52:42;;;;;;;4.80;1.42;;;20.30;99.90;;;;;;4206284;28;20182;-86
2022/09/05 03:55:25;;;;;;;5.90;1.63;;;20.30;99.90;;;;;;4181988;28;20688;-86
2022/09/05 03:57:28;;;;;;;4.05;1.60;;;20.40;99.90;;;;;;4198604;28;20210;-90
2022/09/05 03:59:53;;;;;;;3.97;1.88;;;20.60;99.90;;;;;;4182092;28;20172;-93
2022/09/05 04:02:03;;;;;;;4.32;1.88;;;20.70;99.90;;;;;;4165734;28;20664;-93
2022/09/05 04:04:33;;;;;;;6.78;1.70;;;20.60;99.90;;;;;;4198367;28;20170;-93
2022/09/05 04:06:50;;;;;;;9.75;2.08;;;20.60;99.90;;;;;;4165694;28;20664;-88
2022/09/05 04:09:11;;;;;;;6.65;1.73;;;20.80;99.90;;;;;;4182243;28;20172;-92
2022/09/05 04:11:30;;;;;;;2.78;1.40;;;20.90;99.90;;;;;;4165173;28;20199;-93
2022/09/05 04:13:31;;;;;;;3.92;1.60;;;20.90;99.90;;;;;;4198612;28;20538;-86
2022/09/05 04:15:41;;;;;;;5.10;1.83;;;20.80;99.90;;;;;;4165343;28;20204;-92
2022/09/05 04:17:46;;;;;;;3.85;1.60;;;20.70;99.90;;;;;;4181899;28;20748;-92
2022/09/05 04:19:58;;;;;;;5.70;2.15;;;20.70;99.90;;;;;;4165241;28;20330;-93
2022/09/05 04:22:21;;;;;;;3.95;1.85;;;20.80;99.90;;;;;;4164648;28;20180;-93
2022/09/05 04:24:37;;;;;;;3.58;1.63;;;20.80;99.90;;;;;;4181828;28;20179;-92
2022/09/05 04:27:00;;;;;;;5.65;2.05;;;20.90;99.90;;;;;;4165242;28;20609;-86
2022/09/05 04:29:13;;;;;;;6.40;1.77;;;20.80;99.90;;;;;;4181768;28;20561;-92
2022/09/05 04:31:55;;;;;;;7.43;1.70;;;20.80;99.90;;;;;;4165004;28;20187;-93
2022/09/05 04:34:24;;;;;;;6.10;1.73;;;20.80;99.90;;;;;;4165087;28;20172;-84
2022/09/05 04:36:29;;;;;;;4.38;1.60;;;20.90;99.90;;;;;;4198043;28;20203;-92
2022/09/05 04:38:39;;;;;;;3.13;1.45;;;20.90;99.90;;;;;;4181513;28;20179;-86
2022/09/05 04:40:44;;;;;;;3.65;1.58;;;20.90;99.90;;;;;;4165177;28;20191;-93
2022/09/05 04:42:45;;;;;;;4.53;1.73;;;20.90;99.90;;;;;;4165136;28;20168;-86
2022/09/05 04:45:11;;;;;;;4.63;1.90;;;20.80;99.90;;;;;;4165052;28;20184;-89
2022/09/05 04:47:27;;;;;;;2.78;1.58;;;20.70;99.90;;;;;;4198074;28;20279;-92
2022/09/05 04:49:43;;;;;;;2.95;1.65;;;20.60;99.90;;;;;;4164481;28;20691;-87
2022/09/05 04:52:05;;;;;;;6.10;1.98;;;20.50;99.90;;;;;;4182365;28;20250;-92
2022/09/05 04:54:25;;;;;;;3.13;1.70;;;20.60;99.90;;;;;;4181530;28;20262;-87
2022/09/05 04:56:32;;;;;;;3.15;1.60;;;20.50;99.90;;;;;;4181346;28;20168;-92
2022/09/05 04:58:37;;;;;;;5.95;1.60;;;20.40;99.90;;;;;;4197774;28;20173;-94
2022/09/05 05:00:56;;;;;;;3.28;1.55;;;20.50;99.90;;;;;;4182191;28;20198;-87
2022/09/05 05:03:03;;;;;;;2.83;1.33;;;20.40;99.90;;;;;;4182150;28;20174;-94
2022/09/05 05:05:15;;;;;;;3.97;1.52;;;20.40;99.90;;;;;;4165021;28;20172;-88
2022/09/05 05:07:23;;;;;;;3.65;1.60;;;20.40;99.90;;;;;;4164990;28;20270;-93
2022/09/05 05:09:33;;;;;;;6.13;1.70;;;20.40;99.90;;;;;;4164455;28;20183;-86
2022/09/05 05:11:49;;;;;;;3.92;1.50;;;20.30;99.90;;;;;;4181324;28;20168;-86
2022/09/05 05:13:57;;;;;;;3.35;1.83;;;20.40;99.90;;;;;;4181189;28;20210;-89
2022/09/05 05:16:09;;;;;;;4.75;1.52;;;20.40;99.90;;;;;;4180974;28;20209;-86
2022/09/05 05:18:24;;;;;;;6.57;1.80;;;20.40;99.90;;;;;;4197873;28;20187;-85
2022/09/05 05:20:31;;;;;;;6.15;1.77;;;20.40;99.90;;;;;;4164452;28;20242;-89
2022/09/05 05:22:32;;;;;;;6.30;1.88;;;20.40;99.90;;;;;;4180968;28;20163;-85
2022/09/05 05:24:40;;;;;;;6.97;1.70;;;20.60;99.90;;;;;;4180911;28;20249;-85
2022/09/05 05:26:43;;;;;;;3.03;1.63;;;20.70;99.90;;;;;;4181838;28;20174;-85
2022/09/05 05:29:08;;;;;;;3.58;1.55;;;20.80;99.90;;;;;;4181059;28;20184;-93
2022/09/05 05:31:25;;;;;;;4.35;1.60;;;20.90;99.90;;;;;;4180927;28;20209;-93
2022/09/05 05:33:30;;;;;;;3.67;1.50;;;20.90;99.90;;;;;;4199558;28;20167;-93
2022/09/05 05:35:33;;;;;;;5.28;1.48;;;20.80;99.90;;;;;;4167618;28;20183;-90
2022/09/05 05:37:50;;;;;;;5.13;1.50;;;20.80;99.90;;;;;;4167885;28;20219;-92
2022/09/05 05:40:09;;;;;;;3.17;1.58;;;20.90;99.90;;;;;;4183869;28;20256;-93
2022/09/05 05:42:23;;;;;;;7.70;1.60;;;21.00;99.90;;;;;;4167658;28;20172;-92
2022/09/05 05:44:26;;;;;;;4.57;1.40;;;21.10;99.90;;;;;;4200664;28;20174;-85
2022/09/05 05:46:38;;;;;;;4.80;1.35;;;21.00;99.90;;;;;;4167693;28;20176;-94
2022/09/05 05:48:40;;;;;;;6.95;1.45;;;21.10;99.90;;;;;;4167674;28;20172;-88
2022/09/05 05:51:26;;;;;;;6.70;1.60;;;21.20;99.90;;;;;;4167782;28;20207;-85
2022/09/05 05:54:00;;;;;;;4.80;1.40;;;21.30;99.90;;;;;;4167685;28;20172;-86
2022/09/05 05:56:24;;;;;;;5.35;1.45;;;21.20;99.90;;;;;;4167585;28;20176;-89
2022/09/05 05:58:47;;;;;;;4.47;1.40;;;21.20;99.90;;;;;;4183906;28;20210;-86
2022/09/05 06:00:54;;;;;;;5.63;1.27;;;21.30;99.90;;;;;;4167276;28;20235;-86
2022/09/05 06:03:06;;;;;;;2.92;1.30;;;21.20;99.90;;;;;;4184960;28;20209;-86
2022/09/05 06:05:22;;;;;;;3.97;1.42;;;21.20;99.90;;;;;;4184938;28;20372;-85
2022/09/05 06:07:28;;;;;;;4.30;1.40;;;21.20;99.90;;;;;;4183850;28;20236;-86
2022/09/05 06:09:38;;;;;;;6.90;1.40;;;21.40;99.90;;;;;;4168908;28;20176;-85
2022/09/05 06:11:58;;;;;;;4.63;1.33;;;21.40;99.90;;;;;;4185947;28;20663;-85
2022/09/05 06:14:08;;;;;;;8.40;1.40;;;21.60;99.90;;;;;;4190305;28;20176;-92
2022/09/05 06:16:14;;;;;;;3.03;1.20;;;21.60;99.90;;;;;;4200324;28;20242;-86
2022/09/05 06:18:15;;;;;;;6.07;1.17;;;21.70;99.90;;;;;;4167316;28;20282;-90
2022/09/05 06:20:37;;;;;;;4.18;1.27;;;21.90;99.90;;;;;;4183584;28;20192;-86
2022/09/05 06:23:09;;;;;;;6.38;1.30;;;22.00;99.90;;;;;;4184741;28;20174;-87
2022/09/05 06:25:39;;;;;;;5.65;1.35;;;21.90;99.90;;;;;;4183380;28;20618;-86
2022/09/05 06:28:14;;;;;;;4.55;1.35;;;21.80;99.90;;;;;;4184493;28;20229;-92
2022/09/05 06:30:21;;;;;;;2.70;1.20;;;21.80;99.90;;;;;;4176889;28;20230;-85
2022/09/05 06:32:52;;;;;;;3.50;1.30;;;21.80;99.90;;;;;;4183500;28;20703;-85
2022/09/05 06:35:20;;;;;;;7.05;1.33;;;21.80;99.90;;;;;;4183669;28;20183;-87
2022/09/05 06:37:36;;;;;;;4.63;1.30;;;21.80;99.90;;;;;;4199869;28;20249;-93
2022/09/05 06:40:31;;;;;;;3.17;1.40;;;21.60;99.90;;;;;;4183074;28;20171;-93
2022/09/05 06:42:56;;;;;;;5.47;1.30;;;21.90;99.90;;;;;;4133728;28;20590;-86
2022/09/05 06:45:15;;;;;;;8.35;1.40;;;22.10;99.90;;;;;;4179461;28;20195;-86
2022/09/05 06:47:19;;;;;;;11.15;1.67;;;22.40;99.90;;;;;;4183026;28;20560;-91
2022/09/05 06:49:42;;;;;;;7.28;1.38;;;22.50;99.90;;;;;;4183290;28;20210;-85
2022/09/05 06:52:09;;;;;;;6.03;1.50;;;22.60;99.90;;;;;;4183352;28;20270;-93
2022/09/05 06:54:43;;;;;;;3.70;1.15;;;22.60;99.90;;;;;;4183282;28;20182;-93
2022/09/05 06:56:50;;;;;;;8.27;1.60;;;22.80;99.90;;;;;;4166704;28;20216;-93
2022/09/05 06:59:09;;;;;;;10.93;1.73;;;22.80;99.90;;;;;;4166574;28;20187;-93
2022/09/05 07:01:13;;;;;;;3.30;1.63;;;22.90;99.90;;;;;;4182820;28;20310;-89
2022/09/05 07:03:36;;;;;;;3.15;1.40;;;23.10;99.90;;;;;;4199446;28;20257;-93
2022/09/05 07:05:55;;;;;;;4.63;2.05;;;23.20;99.90;;;;;;4166357;28;20181;-94
2022/09/05 07:08:04;;;;;;;8.88;1.67;;;23.40;99.90;;;;;;4182842;28;20180;-85
2022/09/05 07:10:28;;;;;;;3.65;1.45;;;23.60;99.90;;;;;;4150730;28;20204;-94
2022/09/05 07:12:37;;;;;;;4.95;1.52;;;24.50;99.90;;;;;;4182562;28;20180;-94
2022/09/05 07:15:00;;;;;;;4.78;1.40;;;25.10;99.90;;;;;;4199705;28;20166;-86
2022/09/05 07:17:18;;;;;;;8.23;1.52;;;25.70;99.90;;;;;;4166354;28;20216;-85
2022/09/05 07:19:26;;;;;;;6.40;1.65;;;26.20;99.90;;;;;;4166056;28;20172;-94
2022/09/05 07:21:36;;;;;;;13.35;1.80;;;27.00;99.90;;;;;;4182572;28;20170;-86
2022/09/05 07:23:48;;;;;;;8.73;1.77;;;27.80;99.90;;;;;;4199306;28;20532;-93
2022/09/05 07:25:53;;;;;;;8.07;2.42;;;29.00;99.90;;;;;;4166016;28;20180;-93
2022/09/05 07:28:05;;;;;;;8.75;1.73;;;29.60;99.90;;;;;;4166091;28;20184;-95
2022/09/05 07:30:06;;;;;;;6.95;2.00;;;30.70;99.90;;;;;;4166130;28;20282;-94
2022/09/05 07:32:12;;;;;;;4.78;1.90;;;31.30;99.90;;;;;;4182651;28;20617;-93
2022/09/05 07:34:25;;;;;;;8.57;2.00;;;31.70;99.90;;;;;;4165743;28;20303;-95
2022/09/05 07:36:36;;;;;;;12.18;1.90;;;32.20;99.90;;;;;;4198642;28;20669;-91
2022/09/05 07:38:38;;;;;;;6.97;1.80;;;33.00;99.90;;;;;;4165805;28;20176;-86
2022/09/05 07:40:49;;;;;;;8.43;2.13;;;33.30;99.90;;;;;;4181848;28;20290;-85
2022/09/05 07:42:55;;;;;;;7.80;1.83;;;34.20;99.90;;;;;;4182282;28;20171;-92
2022/09/05 07:45:05;;;;;;;3.53;1.83;;;34.80;99.90;;;;;;4165657;28;20179;-86
2022/09/05 07:47:20;;;;;;;13.88;2.50;;;34.80;99.90;;;;;;4198515;28;20642;-86
2022/09/05 07:49:26;;;;;;;6.25;1.95;;;34.60;99.90;;;;;;4165485;28;20167;-86
2022/09/05 07:51:33;;;;;;;9.80;2.30;;;34.10;99.90;;;;;;4181787;28;20210;-85
2022/09/05 07:53:40;;;;;;;9.82;2.08;;;34.60;99.90;;;;;;4165460;28;20176;-85
2022/09/05 07:55:41;;;;;;;8.23;2.00;;;35.10;99.90;;;;;;4181662;28;20171;-86
2022/09/05 07:57:44;;;;;;;8.43;2.10;;;35.60;99.90;;;;;;4164760;28;20714;-86
2022/09/05 07:59:50;;;;;;;13.65;2.00;;;35.60;99.90;;;;;;4182867;28;20257;-86
2022/09/05 08:01:54;;;;;;;7.35;2.10;;;35.70;99.90;;;;;;4182961;28;20204;-96
2022/09/05 08:03:56;;;;;;;9.00;2.30;;;35.90;99.90;;;;;;4150154;28;20179;-87
2022/09/05 08:06:04;;;;;;;8.15;2.25;;;36.40;99.90;;;;;;4182692;28;20171;-87
2022/09/05 08:08:29;;;;;;;9.80;1.95;;;36.70;99.90;;;;;;4184521;28;20257;-87
2022/09/05 08:10:37;;;;;;;9.25;2.05;;;36.30;99.90;;;;;;4184833;28;20183;-87
2022/09/05 08:12:43;;;;;;;8.48;1.90;;;35.70;99.90;;;;;;4203410;28;20172;-87
2022/09/05 08:15:09;;;;;;;8.40;1.95;;;35.80;99.90;;;;;;4186843;28;20171;-93
2022/09/05 08:17:16;;;;;;;11.38;1.90;;;36.10;99.90;;;;;;4185692;28;20340;-96
2022/09/05 08:19:39;;;;;;;11.10;2.67;;;36.80;99.90;;;;;;4183718;28;20269;-87
2022/09/05 08:21:47;;;;;;;4.65;1.70;;;37.70;99.30;;;;;;4186234;28;20167;-89
2022/09/05 08:24:08;;;;;;;4.38;2.10;;;37.30;99.40;;;;;;4172739;28;20209;-88
2022/09/05 08:26:26;;;;;;;9.63;2.00;;;37.10;99.10;;;;;;4203991;28;20227;-88
2022/09/05 08:28:57;;;;;;;7.63;1.80;;;36.90;99.00;;;;;;4167405;28;20175;-91
2022/09/05 08:31:08;;;;;;;7.72;1.70;;;36.50;99.40;;;;;;4187479;28;20236;-88
2022/09/05 08:33:19;;;;;;;11.65;1.95;;;36.10;99.60;;;;;;4169232;28;20178;-88
2022/09/05 08:35:34;;;;;;;8.18;2.20;;;36.40;99.20;;;;;;4168565;28;20182;-89
2022/09/05 08:37:36;;;;;;;8.43;1.88;;;36.60;99.10;;;;;;4166465;28;20203;-87
2022/09/05 08:39:40;;;;;;;8.23;2.03;;;35.60;98.70;;;;;;4201293;28;20189;-96
2022/09/05 08:42:04;;;;;;;6.53;1.40;;;35.60;98.80;;;;;;4167182;28;20186;-96
2022/09/05 08:44:13;;;;;;;3.95;1.50;;;35.50;99.00;;;;;;4169365;28;20180;-89
2022/09/05 08:46:31;;;;;;;12.10;1.67;;;34.80;99.80;;;;;;4202976;28;20178;-88
2022/09/05 08:49:09;;;;;;;6.13;1.52;;;34.80;99.30;;;;;;4170155;28;20206;-89
2022/09/05 08:51:18;;;;;;;6.65;1.40;;;35.00;99.50;;;;;;4171775;28;20221;-88
2022/09/05 08:53:34;;;;;;;6.15;1.42;;;35.60;99.50;;;;;;4165937;28;20176;-88
2022/09/05 08:56:09;;;;;;;19.65;1.75;;;36.00;98.90;;;;;;4184495;28;20236;-87
2022/09/05 08:58:26;;;;;;;5.85;1.50;;;36.00;98.70;;;;;;4201890;28;20201;-92
2022/09/05 09:00:34;;;;;;;2.38;1.10;;;35.90;98.80;;;;;;4168416;28;20254;-88
2022/09/05 09:03:04;;;;;;;7.13;2.10;;;35.10;99.00;;;;;;4201244;28;20173;-90
2022/09/05 09:05:27;;;;;;;7.70;1.40;;;35.20;99.60;;;;;;4162909;28;20179;-95
2022/09/05 09:07:39;;;;;;;5.97;1.35;;;35.30;98.80;;;;;;4186720;28;20177;-95
2022/09/05 09:10:04;;;;;;;9.75;1.30;;;35.00;98.80;;;;;;4166499;28;20672;-88
2022/09/05 09:13:02;;;;;;;9.95;1.50;;;35.30;98.40;;;;;;4168342;28;20183;-95
2022/09/05 09:15:37;;;;;;;10.77;1.58;;;35.30;98.60;;;;;;4168456;28;20203;-96
2022/09/05 09:17:45;;;;;;;5.82;1.48;;;35.00;99.00;;;;;;4186730;28;20249;-89
2022/09/05 09:20:08;;;;;;;5.65;1.33;;;35.30;99.00;;;;;;4170603;28;20239;-89
2022/09/05 09:22:14;;;;;;;4.57;1.17;;;35.40;98.60;;;;;;4166485;28;20706;-89
2022/09/05 09:24:29;;;;;;;4.15;1.30;;;35.60;98.70;;;;;;4184640;28;20648;-89
2022/09/05 09:27:00;;;;;;;5.57;1.30;;;35.40;98.00;;;;;;4172619;28;20221;-89
2022/09/05 09:29:12;;;;;;;4.28;1.00;;;35.40;98.70;;;;;;4185366;28;20337;-90
2022/09/05 09:31:26;;;;;;;6.30;1.10;;;34.80;98.70;;;;;;4189358;28;20203;-91
2022/09/05 09:33:55;;;;;;;5.82;1.20;;;35.00;98.80;;;;;;4168446;28;20172;-95
2022/09/05 09:36:25;;;;;;;4.95;1.17;;;35.60;98.60;;;;;;4160999;28;20183;-89
2022/09/05 09:38:50;;;;;;;8.07;1.30;;;35.70;98.30;;;;;;4189662;28;20205;-92
2022/09/05 09:41:21;;;;;;;3.92;1.20;;;36.00;98.90;;;;;;4201512;28;20217;-89
2022/09/05 09:43:32;;;;;;;5.05;1.42;;;36.50;97.90;;;;;;4172302;28;20171;-88
2022/09/05 09:45:33;;;;;;;3.13;1.10;;;36.20;98.20;;;;;;4169783;28;20198;-95
2022/09/05 09:47:44;;;;;;;3.90;1.40;;;35.60;98.30;;;;;;4169977;28;20560;-95
2022/09/05 09:50:17;;;;;;;7.22;1.17;;;35.20;98.50;;;;;;4170388;28;20289;-90
2022/09/05 09:52:53;;;;;;;9.55;1.27;;;35.10;98.60;;;;;;4188345;28;20183;-93
2022/09/05 09:55:31;;;;;;;6.07;1.20;;;35.50;98.90;;;;;;4206772;28;20177;-92
2022/09/05 09:57:43;;;;;;;2.92;1.25;;;35.00;99.10;;;;;;4185441;28;20218;-96
2022/09/05 10:00:03;;;;;;;6.45;1.30;;;35.00;98.80;;;;;;4169883;28;20188;-90
2022/09/05 10:02:27;;;;;;;5.28;1.33;;;34.90;98.80;;;;;;4186267;28;20206;-91
2022/09/05 10:04:57;;;;;;;5.63;1.50;;;34.50;99.10;;;;;;4186769;28;20175;-91
2022/09/05 10:07:42;;;;;;;4.45;1.33;;;34.00;99.20;;;;;;4170597;28;20183;-87
2022/09/05 10:10:04;;;;;;;3.90;1.30;;;33.40;99.50;;;;;;4170073;28;20275;-90
2022/09/05 10:12:32;;;;;;;10.57;1.30;;;33.20;99.90;;;;;;4188896;28;20201;-88
2022/09/05 10:14:54;;;;;;;8.10;1.15;;;33.40;99.90;;;;;;4185816;28;20155;-90
2022/09/05 10:17:14;;;;;;;9.35;2.03;;;32.70;99.90;;;;;;4171048;28;20611;-89
2022/09/05 10:19:49;;;;;;;13.75;1.35;;;32.60;99.90;;;;;;4187512;28;20746;-93
2022/09/05 10:21:59;;;;;;;8.30;1.30;;;32.80;99.90;;;;;;4210074;28;20303;-91
2022/09/05 10:24:53;;;;;;;5.18;1.20;;;32.10;99.90;;;;;;4172346;28;20172;-88
2022/09/05 10:27:23;;;;;;;9.60;1.40;;;32.10;99.90;;;;;;4155620;28;20621;-88
2022/09/05 10:29:29;;;;;;;6.82;1.20;;;32.20;99.90;;;;;;4183314;28;20198;-87
2022/09/05 10:31:46;;;;;;;5.68;1.25;;;32.40;99.90;;;;;;4173861;28;20176;-87
2022/09/05 10:34:17;;;;;;;11.63;1.25;;;32.40;99.90;;;;;;4187217;28;20171;-88
2022/09/05 10:36:26;;;;;;;7.18;1.42;;;32.20;99.90;;;;;;4188428;28;20667;-92
2022/09/05 10:38:43;;;;;;;5.82;1.42;;;32.10;99.90;;;;;;4203847;28;20297;-89
2022/09/05 10:40:47;;;;;;;11.35;1.70;;;32.40;99.90;;;;;;4171364;28;20211;-96
2022/09/05 10:42:49;;;;;;;12.85;1.52;;;32.30;99.90;;;;;;4170846;28;20179;-91
2022/09/05 10:44:54;;;;;;;2.42;1.20;;;32.20;99.90;;;;;;4170363;28;20176;-95
2022/09/05 10:46:58;;;;;;;5.63;1.20;;;31.70;99.90;;;;;;4203683;28;20185;-88
2022/09/05 10:49:07;;;;;;;8.52;1.27;;;31.70;99.90;;;;;;4170990;28;20171;-88
2022/09/05 10:51:52;;;;;;;12.45;1.30;;;31.70;99.90;;;;;;4204189;28;20243;-95
2022/09/05 10:54:21;;;;;;;7.10;1.45;;;32.10;99.90;;;;;;4158865;28;20192;-90
2022/09/05 10:56:27;;;;;;;6.93;1.33;;;32.30;99.90;;;;;;4168785;28;20176;-89
2022/09/05 10:59:00;;;;;;;6.90;1.27;;;32.00;99.90;;;;;;4156535;28;20192;-95
2022/09/05 11:01:20;;;;;;;8.35;1.33;;;31.80;99.90;;;;;;4169718;28;20278;-88
2022/09/05 11:03:29;;;;;;;12.00;1.10;;;32.10;99.90;;;;;;4168226;28;20172;-90
2022/09/05 11:05:36;;;;;;;4.75;1.00;;;31.90;99.90;;;;;;4200802;28;20178;-91
2022/09/05 11:07:42;;;;;;;6.93;1.27;;;32.10;99.90;;;;;;4170215;28;20180;-88
2022/09/05 11:10:09;;;;;;;9.05;1.40;;;32.20;99.90;;;;;;4168668;28;20191;-88
2022/09/05 11:12:31;;;;;;;4.55;1.00;;;32.20;99.90;;;;;;4186434;28;20211;-93
2022/09/05 11:14:55;;;;;;;6.88;1.27;;;32.40;99.90;;;;;;4203036;28;20170;-93
2022/09/05 11:17:13;;;;;;;8.98;1.40;;;32.70;99.90;;;;;;4172720;28;20204;-89
2022/09/05 11:19:16;;;;;;;5.93;1.20;;;32.90;99.90;;;;;;4168988;28;20261;-87
2022/09/05 11:21:29;;;;;;;7.93;1.40;;;32.90;99.90;;;;;;4172211;28;20188;-92
2022/09/05 11:23:43;;;;;;;10.82;1.30;;;32.90;99.90;;;;;;4192633;28;20178;-89
2022/09/05 11:25:46;;;;;;;4.15;1.17;;;32.80;99.60;;;;;;4207731;28;20175;-90
2022/09/05 11:27:51;;;;;;;7.53;1.20;;;32.80;99.90;;;;;;4171181;28;20183;-89
2022/09/05 11:30:20;;;;;;;3.60;1.20;;;32.50;99.90;;;;;;4171634;28;20196;-95
2022/09/05 11:32:50;;;;;;;2.42;0.95;;;32.80;99.90;;;;;;4187867;28;20171;-92
2022/09/05 11:35:06;;;;;;;2.40;0.90;;;32.50;99.70;;;;;;4169637;28;20180;-88
2022/09/05 11:37:37;;;;;;;2.65;1.17;;;32.60;99.90;;;;;;4185995;28;20234;-92
2022/09/05 11:39:52;;;;;;;7.03;0.93;;;32.40;99.90;;;;;;4165417;28;20184;-89
2022/09/05 11:42:36;;;;;;;3.63;1.17;;;32.20;99.90;;;;;;4185974;28;20586;-88
2022/09/05 11:45:04;;;;;;;2.88;1.10;;;31.80;99.90;;;;;;4185864;28;20201;-90
2022/09/05 11:47:28;;;;;;;7.13;1.10;;;31.90;99.90;;;;;;4171240;28;20258;-89
2022/09/05 11:49:41;;;;;;;4.40;0.93;;;32.00;99.90;;;;;;4168725;28;20191;-94
2022/09/05 11:52:20;;;;;;;3.05;1.23;;;31.70;99.90;;;;;;4167756;28;20195;-89
2022/09/05 11:54:35;;;;;;;2.85;0.93;;;31.90;99.90;;;;;;4201556;28;20167;-89
2022/09/05 11:56:54;;;;;;;4.95;1.10;;;32.30;99.90;;;;;;4168670;28;20175;-89